createdAt,value
2019-05-11T00:02:16.931Z,99041.20
2019-05-11T00:04:43.224Z,99044.74
2019-05-11T00:07:09.555Z,99051.77
2019-05-11T00:09:35.840Z,99053.00
2019-05-11T00:12:02.137Z,99055.14
2019-05-11T00:14:28.868Z,99048.78
2019-05-11T00:16:55.161Z,99055.14
2019-05-11T00:19:21.450Z,99054.51
2019-05-11T00:21:47.773Z,99062.02
2019-05-11T00:24:14.085Z,99068.08
2019-05-11T00:26:40.379Z,99061.13
2019-05-11T00:29:06.714Z,99065.86
2019-05-11T00:31:33.335Z,99065.49
2019-05-11T00:33:59.657Z,99063.16
2019-05-11T00:36:25.956Z,99061.31
2019-05-11T00:38:52.244Z,99062.07
2019-05-11T00:41:18.527Z,99067.39
2019-05-11T00:43:44.854Z,99073.76
2019-05-11T00:46:11.149Z,99076.84
2019-05-11T00:48:37.439Z,99071.52
2019-05-11T00:51:03.764Z,99072.94
2019-05-11T00:53:30.061Z,99079.88
2019-05-11T00:55:56.357Z,99077.78
2019-05-11T00:58:22.682Z,99074.39
2019-05-11T01:00:48.972Z,99075.73
2019-05-11T01:03:15.308Z,99076.72
2019-05-11T01:05:41.642Z,99078.30
2019-05-11T01:08:07.937Z,99074.66
2019-05-11T01:10:42.270Z,99067.18
2019-05-11T01:13:02.463Z,99079.75
2019-05-11T01:15:28.747Z,99075.03
2019-05-11T01:17:55.036Z,99088.94
2019-05-11T01:20:21.368Z,99092.45
2019-05-11T01:22:47.657Z,99090.06
2019-05-11T01:25:13.953Z,99087.00
2019-05-11T01:27:40.284Z,99088.52
2019-05-11T01:30:07.868Z,99090.48
2019-05-11T01:32:34.179Z,99089.63
2019-05-11T01:35:00.787Z,99092.97
2019-05-11T01:37:27.081Z,99089.20
2019-05-11T01:39:53.369Z,99091.06
2019-05-11T01:42:19.704Z,99094.39
2019-05-11T01:44:46.001Z,99085.34
2019-05-11T01:47:12.286Z,99091.91
2019-05-11T01:49:38.604Z,99096.31
2019-05-11T01:52:04.908Z,99091.66
2019-05-11T01:54:31.200Z,99090.22
2019-05-11T01:56:57.533Z,99093.94
2019-05-11T01:59:23.821Z,99091.59
2019-05-11T02:01:50.113Z,99093.44
2019-05-11T02:04:16.513Z,99100.56
2019-05-11T02:06:42.809Z,99103.67
2019-05-11T02:09:09.111Z,99109.19
2019-05-11T02:11:35.451Z,99108.38
2019-05-11T02:14:02.145Z,99104.48
2019-05-11T02:16:28.450Z,99105.05
2019-05-11T02:18:54.767Z,99113.53
2019-05-11T02:21:21.060Z,99101.47
2019-05-11T02:23:47.355Z,99117.41
2019-05-11T02:26:13.688Z,99116.50
2019-05-11T02:28:39.974Z,99111.92
2019-05-11T02:31:06.267Z,99117.58
2019-05-11T02:33:32.600Z,99117.14
2019-05-11T02:35:58.897Z,99121.47
2019-05-11T02:38:25.187Z,99124.02
2019-05-11T02:40:51.518Z,99126.20
2019-05-11T02:43:18.093Z,99128.63
2019-05-11T02:45:44.378Z,99134.05
2019-05-11T02:48:10.718Z,99140.88
2019-05-11T02:50:38.451Z,99136.50
2019-05-11T02:53:06.512Z,99139.57
2019-05-11T02:55:34.436Z,99142.66
2019-05-11T02:58:00.727Z,99137.14
2019-05-11T03:00:54.720Z,99147.02
2019-05-11T03:03:21.013Z,99145.94
2019-05-11T03:05:48.240Z,99154.64
2019-05-11T03:08:17.359Z,99154.37
2019-05-11T03:10:43.642Z,99162.87
2019-05-11T03:13:09.940Z,99154.72
2019-05-11T03:15:36.376Z,99167.78
2019-05-11T03:18:02.748Z,99155.23
2019-05-11T03:27:44.861Z,99170.61
2019-05-11T03:30:11.852Z,99181.02
2019-05-11T03:32:38.149Z,99185.22
2019-05-11T03:35:04.597Z,99187.06
2019-05-11T03:37:30.891Z,99184.87
2019-05-11T03:39:57.192Z,99197.11
2019-05-11T03:42:23.524Z,99193.57
2019-05-11T03:44:49.855Z,99188.05
2019-05-11T03:47:16.185Z,99201.60
2019-05-11T03:49:42.497Z,99192.95
2019-05-11T03:52:08.783Z,99190.61
2019-05-11T03:54:35.076Z,99177.78
2019-05-11T03:57:01.434Z,99175.14
2019-05-11T03:59:27.770Z,99173.91
2019-05-11T04:01:54.053Z,99166.83
2019-05-11T04:04:20.376Z,99180.19
2019-05-11T04:06:47.513Z,99182.84
2019-05-11T04:09:13.682Z,99199.70
2019-05-11T04:11:39.866Z,99199.09
2019-05-11T04:14:06.147Z,99213.88
2019-05-11T04:16:32.306Z,99214.52
2019-05-11T04:18:58.501Z,99214.90
2019-05-11T04:21:24.679Z,99215.78
2019-05-11T04:23:50.979Z,99213.91
2019-05-11T04:26:17.166Z,99220.50
2019-05-11T04:28:43.325Z,99221.62
2019-05-11T04:31:09.506Z,99229.55
2019-05-11T04:33:35.687Z,99225.61
2019-05-11T04:36:01.877Z,99226.73
2019-05-11T04:38:28.042Z,99229.44
2019-05-11T04:40:54.245Z,99233.30
2019-05-11T04:43:20.404Z,99235.13
2019-05-11T04:45:46.582Z,99241.66
2019-05-11T04:48:12.787Z,99235.44
2019-05-11T04:50:38.937Z,99228.17
2019-05-11T04:53:05.126Z,99222.00
2019-05-11T04:55:31.320Z,99222.11
2019-05-11T04:57:57.469Z,99223.14
2019-05-11T05:00:23.642Z,99220.73
2019-05-11T05:02:50.874Z,99228.84
2019-05-11T05:05:17.032Z,99237.72
2019-05-11T05:07:49.366Z,99244.83
2019-05-11T05:10:13.963Z,99247.78
2019-05-11T05:12:39.521Z,99246.94
2019-05-11T05:15:05.708Z,99237.20
2019-05-11T05:17:31.915Z,99234.82
2019-05-11T05:19:58.071Z,99249.73
2019-05-11T05:22:29.368Z,99246.22
2019-05-11T05:24:55.565Z,99246.70
2019-05-11T05:27:21.725Z,99248.94
2019-05-11T05:29:47.906Z,99236.59
2019-05-11T05:32:14.189Z,99236.14
2019-05-11T05:34:40.367Z,99246.23
2019-05-11T05:37:06.549Z,99253.25
2019-05-11T05:39:32.729Z,99250.16
2019-05-11T05:41:58.888Z,99255.06
2019-05-11T05:44:27.782Z,99250.67
2019-05-11T05:46:54.282Z,99252.22
2019-05-11T05:49:20.434Z,99246.95
2019-05-11T05:51:46.612Z,99246.52
2019-05-11T05:54:12.796Z,99259.17
2019-05-11T05:56:39.157Z,99248.14
2019-05-11T05:59:05.333Z,99255.88
2019-05-11T06:01:31.529Z,99269.58
2019-05-11T06:03:57.824Z,99267.41
2019-05-11T06:06:23.987Z,99264.63
2019-05-11T06:08:50.257Z,99268.03
2019-05-11T06:11:16.405Z,99267.80
2019-05-11T06:13:45.665Z,99275.89
2019-05-11T06:16:10.695Z,99286.84
2019-05-11T06:18:36.842Z,99287.88
2019-05-11T06:21:03.144Z,99296.73
2019-05-11T06:23:29.630Z,99287.33
2019-05-11T06:25:55.795Z,99290.34
2019-05-11T06:28:21.952Z,99294.13
2019-05-11T06:30:48.201Z,99291.13
2019-05-11T06:33:14.374Z,99292.55
2019-05-11T06:35:40.523Z,99286.23
2019-05-11T06:38:06.740Z,99286.96
2019-05-11T06:40:32.901Z,99289.28
2019-05-11T06:42:59.076Z,99285.17
2019-05-11T06:45:25.391Z,99288.06
2019-05-11T06:47:51.564Z,99282.13
2019-05-11T06:50:17.741Z,99288.69
2019-05-11T06:52:44.054Z,99283.20
2019-05-11T06:55:10.212Z,99285.93
2019-05-11T06:57:36.396Z,99291.74
2019-05-11T07:00:05.315Z,99290.83
2019-05-11T07:02:31.470Z,99288.51
2019-05-11T07:04:57.625Z,99292.92
2019-05-11T07:07:23.828Z,99285.45
2019-05-11T07:09:50.994Z,99279.09
2019-05-11T07:12:17.383Z,99292.00
2019-05-11T07:14:43.714Z,99279.66
2019-05-11T07:17:09.865Z,99294.64
2019-05-11T07:19:36.024Z,99304.72
2019-05-11T07:22:02.240Z,99296.64
2019-05-11T07:24:28.418Z,99297.80
2019-05-11T07:26:54.582Z,99292.25
2019-05-11T07:29:20.799Z,99285.29
2019-05-11T07:31:47.310Z,99301.95
2019-05-11T07:34:13.467Z,99292.09
2019-05-11T07:36:39.684Z,99298.62
2019-05-11T07:39:08.308Z,99303.64
2019-05-11T07:41:34.317Z,99301.30
2019-05-11T07:44:00.542Z,99303.76
2019-05-11T07:46:28.794Z,99301.34
2019-05-11T07:48:54.778Z,99307.52
2019-05-11T07:51:21.099Z,99306.06
2019-05-11T07:53:48.648Z,99301.30
2019-05-11T07:56:15.133Z,99303.12
2019-05-11T07:58:41.344Z,99314.02
2019-05-11T08:01:08.694Z,99310.23
2019-05-11T08:03:35.063Z,99315.92
2019-05-11T08:06:02.933Z,99322.00
2019-05-11T08:08:29.358Z,99319.14
2019-05-11T08:10:55.582Z,99315.75
2019-05-11T08:13:21.795Z,99310.09
2019-05-11T08:15:48.832Z,99325.38
2019-05-11T08:18:15.324Z,99327.28
2019-05-11T08:20:41.534Z,99313.76
2019-05-11T08:23:09.061Z,99332.66
2019-05-11T08:25:37.836Z,99330.59
2019-05-11T08:28:03.707Z,99330.37
2019-05-11T08:30:29.861Z,99325.39
2019-05-11T08:32:58.165Z,99340.58
2019-05-11T08:35:27.569Z,99327.95
2019-05-11T08:37:52.194Z,99323.95
2019-05-11T08:40:18.542Z,99329.92
2019-05-11T08:42:44.732Z,99324.88
2019-05-11T08:45:20.489Z,99325.00
2019-05-11T08:47:39.445Z,99319.93
2019-05-11T08:50:08.042Z,99316.11
2019-05-11T08:52:33.946Z,99317.08
2019-05-11T08:55:00.111Z,99316.80
2019-05-11T08:57:28.462Z,99310.92
2019-05-11T08:59:54.381Z,99319.03
2019-05-11T09:02:20.565Z,99311.95
2019-05-11T09:04:48.367Z,99319.65
2019-05-11T09:07:14.827Z,99315.13
2019-05-11T09:09:41.001Z,99318.05
2019-05-11T09:12:07.913Z,99312.78
2019-05-11T09:14:34.235Z,99326.44
2019-05-11T09:17:00.387Z,99309.52
2019-05-11T09:19:28.487Z,99308.09
2019-05-11T09:21:54.786Z,99310.86
2019-05-11T09:24:20.945Z,99311.70
2019-05-11T09:26:47.951Z,99314.41
2019-05-11T09:29:14.321Z,99318.31
2019-05-11T09:31:40.823Z,99322.66
2019-05-11T09:34:09.171Z,99306.92
2019-05-11T09:36:35.442Z,99318.16
2019-05-11T09:39:01.573Z,99331.79
2019-05-11T09:41:29.107Z,99315.19
2019-05-11T09:43:58.595Z,99312.19
2019-05-11T09:46:24.507Z,99321.31
2019-05-11T09:48:50.711Z,99322.41
2019-05-11T09:51:18.388Z,99318.11
2019-05-11T09:53:44.930Z,99312.05
2019-05-11T09:56:11.114Z,99312.91
2019-05-11T09:58:38.628Z,99310.23
2019-05-11T10:01:05.170Z,99305.15
2019-05-11T10:03:31.360Z,99311.11
2019-05-11T10:05:58.138Z,99313.72
2019-05-11T10:08:24.396Z,99303.52
2019-05-11T10:10:50.997Z,99309.58
2019-05-11T10:13:18.661Z,99306.44
2019-05-11T10:16:00.015Z,99303.48
2019-05-11T10:18:18.470Z,99316.99
2019-05-11T10:20:44.214Z,99308.63
2019-05-11T10:23:10.390Z,99305.35
2019-05-11T10:25:38.781Z,99301.44
2019-05-11T10:28:04.699Z,99307.20
2019-05-11T10:30:30.951Z,99297.61
2019-05-11T10:32:57.837Z,99293.30
2019-05-11T10:35:24.399Z,99296.88
2019-05-11T10:37:50.557Z,99295.78
2019-05-11T10:40:18.938Z,99308.28
2019-05-11T10:42:44.816Z,99294.19
2019-05-11T10:45:11.379Z,99286.27
2019-05-11T10:47:38.348Z,99301.74
2019-05-11T10:50:08.376Z,99289.36
2019-05-11T10:52:34.033Z,99284.24
2019-05-11T10:55:00.220Z,99286.79
2019-05-11T10:57:28.325Z,99297.30
2019-05-11T10:59:54.465Z,99293.11
2019-05-11T11:02:20.655Z,99281.08
2019-05-11T11:04:48.545Z,99285.06
2019-05-11T11:07:17.228Z,99298.48
2019-05-11T11:09:42.985Z,99286.08
2019-05-11T11:12:09.165Z,99274.94
2019-05-11T11:14:37.539Z,99275.52
2019-05-11T11:17:03.486Z,99279.69
2019-05-11T11:19:29.754Z,99270.98
2019-05-11T11:21:59.060Z,99275.09
2019-05-11T11:24:24.031Z,99260.30
2019-05-11T11:26:50.210Z,99276.25
2019-05-11T11:29:17.864Z,99279.04
2019-05-11T11:31:44.393Z,99281.38
2019-05-11T11:34:10.633Z,99270.86
2019-05-11T11:36:37.634Z,99269.23
2019-05-11T11:39:05.721Z,99259.48
2019-05-11T11:41:31.883Z,99258.20
2019-05-11T11:43:58.617Z,99255.91
2019-05-11T11:46:25.309Z,99264.94
2019-05-11T11:48:51.470Z,99266.12
2019-05-11T11:51:18.780Z,99264.31
2019-05-11T11:53:47.254Z,99268.42
2019-05-11T11:56:13.229Z,99264.70
2019-05-11T11:58:39.500Z,99261.77
2019-05-11T12:01:08.133Z,99265.17
2019-05-11T12:03:33.867Z,99259.58
2019-05-11T12:06:00.028Z,99261.04
2019-05-11T12:08:28.270Z,99274.72
2019-05-11T12:10:54.303Z,99267.81
2019-05-11T12:13:22.640Z,99270.41
2019-05-11T12:15:49.767Z,99267.51
2019-05-11T12:18:15.919Z,99262.98
2019-05-11T12:20:42.700Z,99254.95
2019-05-11T12:23:08.973Z,99253.61
2019-05-11T12:25:38.258Z,99260.66
2019-05-11T12:28:03.357Z,99267.66
2019-05-11T12:30:29.648Z,99253.47
2019-05-11T12:32:57.700Z,99256.20
2019-05-11T12:35:23.879Z,99253.59
2019-05-11T12:37:50.194Z,99258.28
2019-05-11T12:40:18.024Z,99247.75
2019-05-11T12:42:44.320Z,99245.28
2019-05-11T12:45:10.920Z,99246.73
2019-05-11T12:47:38.489Z,99246.73
2019-05-11T12:50:07.915Z,99252.34
2019-05-11T12:52:34.393Z,99253.26
2019-05-11T12:55:00.649Z,99256.30
2019-05-11T12:57:28.126Z,99242.34
2019-05-11T12:59:54.723Z,99252.13
2019-05-11T13:02:20.877Z,99255.98
2019-05-11T13:04:47.745Z,99254.45
2019-05-11T13:07:16.569Z,99251.03
2019-05-11T13:09:42.424Z,99254.39
2019-05-11T13:12:08.602Z,99255.41
2019-05-11T13:14:34.801Z,99252.27
2019-05-11T13:17:02.771Z,99253.12
2019-05-11T13:19:28.945Z,99250.27
2019-05-11T13:21:55.132Z,99255.73
2019-05-11T13:24:21.419Z,99249.07
2019-05-11T13:26:48.540Z,99249.84
2019-05-11T13:29:15.010Z,99246.66
2019-05-11T13:31:41.175Z,99241.80
2019-05-11T13:34:08.377Z,99246.07
2019-05-11T13:36:34.863Z,99246.80
2019-05-11T13:39:01.016Z,99241.26
2019-05-11T13:41:28.027Z,99251.44
2019-05-11T13:43:54.490Z,99243.16
2019-05-11T13:46:20.770Z,99242.22
2019-05-11T13:48:47.656Z,99246.52
2019-05-11T13:51:14.275Z,99247.33
2019-05-11T13:53:40.434Z,99247.68
2019-05-11T13:56:08.077Z,99254.58
2019-05-11T13:58:34.716Z,99249.23
2019-05-11T14:01:01.025Z,99252.02
2019-05-11T14:03:27.779Z,99251.79
2019-05-11T14:05:54.049Z,99250.92
2019-05-11T14:08:20.300Z,99251.42
2019-05-11T14:10:48.647Z,99261.34
2019-05-11T14:13:14.690Z,99251.69
2019-05-11T14:15:40.863Z,99249.13
2019-05-11T14:18:09.428Z,99245.45
2019-05-11T14:20:35.190Z,99257.14
2019-05-11T14:23:01.344Z,99258.22
2019-05-11T14:25:28.099Z,99257.31
2019-05-11T14:27:54.419Z,99260.06
2019-05-11T14:30:20.695Z,99255.80
2019-05-11T14:32:47.815Z,99264.98
2019-05-11T14:35:14.411Z,99253.00
2019-05-11T14:37:41.500Z,99253.91
2019-05-11T14:40:08.730Z,99259.53
2019-05-11T14:42:35.379Z,99258.72
2019-05-11T14:45:01.528Z,99261.69
2019-05-11T14:47:28.359Z,99253.41
2019-05-11T14:49:54.738Z,99262.81
2019-05-11T14:52:20.904Z,99262.56
2019-05-11T14:54:48.552Z,99251.64
2019-05-11T14:57:15.656Z,99263.41
2019-05-11T14:59:41.904Z,99261.16
2019-05-11T15:02:28.542Z,99260.34
2019-05-11T15:04:54.674Z,99260.70
2019-05-11T15:07:20.835Z,99260.01
2019-05-11T15:09:48.094Z,99251.25
2019-05-11T15:12:14.324Z,99271.91
2019-05-11T15:14:40.503Z,99259.51
2019-05-11T15:17:08.125Z,99262.88
2019-05-11T15:19:34.523Z,99258.88
2019-05-11T15:22:00.678Z,99268.23
2019-05-11T15:24:28.841Z,99256.61
2019-05-11T15:26:55.064Z,99259.38
2019-05-11T15:29:21.350Z,99254.34
2019-05-11T15:31:48.572Z,99262.59
2019-05-11T15:34:14.921Z,99257.30
2019-05-11T15:36:44.008Z,99268.03
2019-05-11T15:39:09.296Z,99259.80
2019-05-11T15:41:35.477Z,99262.03
2019-05-11T15:44:01.653Z,99269.22
2019-05-11T15:46:28.365Z,99270.09
2019-05-11T15:49:02.135Z,99264.31
2019-05-11T15:51:22.784Z,99272.16
2019-05-11T15:53:50.321Z,99269.47
2019-05-11T15:56:18.770Z,99270.30
2019-05-11T15:58:48.374Z,99273.41
2019-05-11T16:01:14.543Z,99270.47
2019-05-11T16:03:40.718Z,99271.83
2019-05-11T16:06:07.831Z,99275.42
2019-05-11T16:08:34.370Z,99275.99
2019-05-11T16:11:00.548Z,99273.91
2019-05-11T16:13:28.518Z,99282.84
2019-05-11T16:15:54.918Z,99286.14
2019-05-11T16:18:21.931Z,99290.61
2019-05-11T16:20:50.265Z,99290.73
2019-05-11T16:23:17.518Z,99285.70
2019-05-11T16:25:44.350Z,99293.57
2019-05-11T16:28:12.028Z,99291.47
2019-05-11T16:30:38.233Z,99292.48
2019-05-11T16:33:04.371Z,99300.66
2019-05-11T16:35:30.559Z,99306.42
2019-05-11T16:37:59.043Z,99297.95
2019-05-11T16:40:24.946Z,99302.52
2019-05-11T16:42:51.129Z,99301.89
2019-05-11T16:45:18.913Z,99309.66
2019-05-11T16:47:47.660Z,99317.05
2019-05-11T16:50:13.788Z,99316.91
2019-05-11T16:52:39.987Z,99316.25
2019-05-11T16:55:07.857Z,99326.41
2019-05-11T16:57:34.232Z,99331.42
2019-05-11T17:00:00.425Z,99332.14
2019-05-11T17:02:27.417Z,99332.95
2019-05-11T17:04:54.670Z,99338.70
2019-05-11T17:07:20.861Z,99342.27
2019-05-11T17:09:48.253Z,99349.23
2019-05-11T17:12:14.522Z,99351.81
2019-05-11T17:14:59.173Z,99348.15
2019-05-11T17:17:27.787Z,99361.56
2019-05-11T17:19:54.004Z,99368.28
2019-05-11T17:22:21.211Z,99365.09
2019-05-11T17:24:48.435Z,99372.27
2019-05-11T17:27:14.865Z,99380.12
2019-05-11T17:29:41.052Z,99382.33
2019-05-11T17:32:08.569Z,99385.97
2019-05-11T17:34:35.006Z,99397.38
2019-05-11T17:37:01.213Z,99402.42
2019-05-11T17:39:28.184Z,99398.89
2019-05-11T17:41:54.663Z,99407.53
2019-05-11T17:44:20.851Z,99416.42
2019-05-11T17:46:47.010Z,99410.14
2019-05-11T17:49:13.602Z,99410.38
2019-05-11T17:51:39.944Z,99416.93
2019-05-11T17:54:07.873Z,99421.47
2019-05-11T17:56:34.186Z,99425.70
2019-05-11T17:59:00.379Z,99428.44
2019-05-11T18:01:27.720Z,99427.11
2019-05-11T18:03:54.231Z,99440.00
2019-05-11T18:06:20.443Z,99432.88
2019-05-11T18:08:47.836Z,99440.27
2019-05-11T18:11:14.351Z,99444.78
2019-05-11T18:13:40.565Z,99449.19
2019-05-11T18:16:08.519Z,99446.81
2019-05-11T18:18:34.809Z,99451.59
2019-05-11T18:21:01.138Z,99456.56
2019-05-11T18:23:28.300Z,99456.88
2019-05-11T18:25:54.740Z,99451.59
2019-05-11T18:28:20.934Z,99455.98
2019-05-11T18:30:47.980Z,99444.95
2019-05-11T18:33:14.284Z,99454.44
2019-05-11T18:35:40.471Z,99458.31
2019-05-11T18:38:08.513Z,99455.22
2019-05-11T18:40:34.745Z,99456.42
2019-05-11T18:43:01.300Z,99462.92
2019-05-11T18:45:28.766Z,99465.86
2019-05-11T18:47:55.355Z,99463.38
2019-05-11T18:50:30.686Z,99466.23
2019-05-11T18:52:49.627Z,99467.55
2019-05-11T18:55:15.803Z,99460.52
2019-05-11T18:57:42.003Z,99463.96
2019-05-11T19:00:09.371Z,99468.77
2019-05-11T19:02:37.754Z,99470.70
2019-05-11T19:05:05.166Z,99468.69
2019-05-11T19:07:31.668Z,99467.17
2019-05-11T19:09:57.894Z,99475.06
2019-05-11T19:12:24.144Z,99471.02
2019-05-11T19:14:50.300Z,99468.78
2019-05-11T19:17:18.175Z,99473.42
2019-05-11T19:19:44.478Z,99479.00
2019-05-11T19:22:10.627Z,99476.73
2019-05-11T19:24:38.273Z,99471.20
2019-05-11T19:27:04.608Z,99474.65
2019-05-11T19:29:30.780Z,99475.60
2019-05-11T19:31:58.036Z,99473.42
2019-05-11T19:34:24.539Z,99469.63
2019-05-11T19:36:50.702Z,99471.33
2019-05-11T19:39:19.158Z,99464.17
2019-05-11T19:41:44.967Z,99472.75
2019-05-11T19:44:11.133Z,99471.97
2019-05-11T19:46:38.767Z,99470.41
2019-05-11T19:49:05.225Z,99470.99
2019-05-11T19:51:31.380Z,99475.63
2019-05-11T19:53:57.689Z,99468.39
2019-05-11T19:56:24.124Z,99480.84
2019-05-11T19:58:50.896Z,99478.51
2019-05-11T20:01:18.813Z,99484.66
2019-05-11T20:03:45.285Z,99484.50
2019-05-11T20:06:11.436Z,99477.47
2019-05-11T20:08:37.696Z,99489.64
2019-05-11T20:11:03.907Z,99485.41
2019-05-11T20:13:30.068Z,99490.34
2019-05-11T20:15:57.825Z,99497.86
2019-05-11T20:18:24.255Z,99492.25
2019-05-11T20:20:50.406Z,99504.60
2019-05-11T20:23:16.565Z,99505.89
2019-05-11T20:25:42.819Z,99501.98
2019-05-11T20:28:08.990Z,99495.25
2019-05-11T20:30:35.248Z,99495.52
2019-05-11T20:33:01.461Z,99502.81
2019-05-11T20:35:28.079Z,99501.33
2019-05-11T20:37:54.375Z,99493.81
2019-05-11T20:40:20.605Z,99497.86
2019-05-11T20:42:48.463Z,99495.78
2019-05-11T20:45:15.033Z,99489.16
2019-05-11T20:47:41.226Z,99476.61
2019-05-11T20:50:08.658Z,99490.84
2019-05-11T20:52:34.811Z,99483.49
2019-05-11T20:55:01.037Z,99483.17
2019-05-11T20:57:28.467Z,99482.34
2019-05-11T20:59:54.664Z,99478.63
2019-05-11T21:02:20.971Z,99478.34
2019-05-11T21:04:49.048Z,99487.02
2019-05-11T21:07:15.192Z,99487.38
2019-05-11T21:09:41.414Z,99484.85
2019-05-11T21:12:08.166Z,99485.23
2019-05-11T21:14:34.434Z,99478.31
2019-05-11T21:17:00.651Z,99494.84
2019-05-11T21:19:28.338Z,99492.83
2019-05-11T21:21:54.856Z,99490.90
2019-05-11T21:24:21.060Z,99486.39
2019-05-11T21:26:47.924Z,99494.36
2019-05-11T21:29:15.206Z,99498.13
2019-05-11T21:31:41.442Z,99497.75
2019-05-11T21:34:08.182Z,99500.94
2019-05-11T21:36:34.751Z,99505.33
2019-05-11T21:39:01.095Z,99504.84
2019-05-11T21:41:28.189Z,99507.67
2019-05-11T21:43:55.389Z,99507.88
2019-05-11T21:46:21.580Z,99510.80
2019-05-11T21:48:47.943Z,99510.38
2019-05-11T21:51:14.111Z,99501.76
2019-05-11T21:53:40.467Z,99500.02
2019-05-11T21:56:08.162Z,99499.48
2019-05-11T21:58:34.742Z,99502.17
2019-05-11T22:01:01.138Z,99499.71
2019-05-11T22:03:28.079Z,99500.05
2019-05-11T22:05:54.592Z,99508.64
2019-05-11T22:08:20.775Z,99509.64
2019-05-11T22:10:46.949Z,99517.68
2019-05-11T22:13:13.100Z,99520.98
2019-05-11T22:15:39.392Z,99526.70
2019-05-11T22:18:07.813Z,99520.97
2019-05-11T22:20:33.625Z,99535.89
2019-05-11T22:22:59.846Z,99533.06
2019-05-11T22:25:26.012Z,99533.55
2019-05-11T22:27:52.171Z,99526.38
2019-05-11T22:30:18.684Z,99521.53
2019-05-11T22:32:45.132Z,99514.06
2019-05-11T22:35:11.893Z,99507.18
2019-05-11T22:37:39.037Z,99508.30
2019-05-11T22:40:08.403Z,99509.16
2019-05-11T22:42:34.940Z,99511.05
2019-05-11T22:45:01.245Z,99511.88
2019-05-11T22:47:28.397Z,99512.37
2019-05-11T22:49:54.785Z,99508.30
2019-05-11T22:52:33.049Z,99504.78
2019-05-11T22:54:49.066Z,99506.92
2019-05-11T22:57:15.239Z,99510.23
2019-05-11T22:59:41.405Z,99505.12
2019-05-11T23:02:10.519Z,99511.09
2019-05-11T23:04:38.000Z,99513.30
2019-05-11T23:07:03.847Z,99514.92
2019-05-11T23:09:30.024Z,99519.01
2019-05-11T23:12:00.785Z,99514.12
2019-05-11T23:14:24.277Z,99518.41
2019-05-11T23:16:50.432Z,99516.85
2019-05-11T23:19:18.261Z,99516.06
2019-05-11T23:21:44.696Z,99512.19
2019-05-11T23:24:10.855Z,99511.64
2019-05-11T23:26:38.613Z,99509.59
2019-05-11T23:29:04.980Z,99505.75
2019-05-11T23:31:31.252Z,99499.55
2019-05-11T23:33:57.856Z,99497.89
2019-05-11T23:36:24.329Z,99494.58
2019-05-11T23:38:50.497Z,99494.52
2019-05-11T23:41:24.069Z,99492.34
2019-05-11T23:43:44.839Z,99496.72
2019-05-11T23:46:11.011Z,99493.74
2019-05-11T23:48:38.617Z,99497.06
2019-05-11T23:51:05.469Z,99493.23
2019-05-11T23:53:31.629Z,99492.69
2019-05-11T23:55:58.027Z,99490.71
2019-05-11T23:58:24.476Z,99486.03
